Time;durP1;ratioP1;P1;durP2;ratioP2;P2;SDS_P1;SDS_P2;PMS_P1;PMS_P2;Temp;Humidity;BMP_temperature;BMP_pressure;BME280_temperature;BME280_humidity;BME280_pressure;Samples;Min_cycle;Max_cycle;Signal;HPM_P1;HPM_P2
2023/10/16 00:00:30;;;;;;;0.90;0.30;;;11.50;85.80;;;;;;5051048;28;20025;-76
2023/10/16 00:02:59;;;;;;;0.95;0.45;;;11.70;84.50;;;;;;5054911;28;20090;-77
2023/10/16 00:05:45;;;;;;;1.98;0.52;;;11.40;85.70;;;;;;5052473;28;20094;-77
2023/10/16 00:08:16;;;;;;;1.30;0.40;;;11.50;85.40;;;;;;5048658;28;20044;-77
2023/10/16 00:10:52;;;;;;;2.00;0.40;;;11.50;85.70;;;;;;5057214;28;20036;-77
2023/10/16 00:13:23;;;;;;;1.75;0.65;;;11.50;84.90;;;;;;5054304;28;20529;-77
2023/10/16 00:15:51;;;;;;;0.57;0.20;;;11.50;85.30;;;;;;5059520;28;20040;-77
2023/10/16 00:18:18;;;;;;;0.30;0.20;;;11.50;85.50;;;;;;5056189;28;20028;-77
2023/10/16 00:20:44;;;;;;;0.85;0.22;;;11.10;86.50;;;;;;5056029;28;20479;-77
2023/10/16 00:23:10;;;;;;;1.20;0.50;;;11.20;86.00;;;;;;5050532;28;20116;-77
2023/10/16 00:25:40;;;;;;;1.13;0.40;;;11.30;85.40;;;;;;5059503;28;20024;-77
2023/10/16 00:28:07;;;;;;;0.38;0.20;;;11.30;85.50;;;;;;5054305;28;20047;-76
2023/10/16 00:30:40;;;;;;;1.13;0.30;;;11.20;85.30;;;;;;5049061;28;20074;-77
2023/10/16 00:33:10;;;;;;;0.32;0.20;;;11.20;85.40;;;;;;5048245;28;20029;-77
2023/10/16 00:35:39;;;;;;;2.20;0.60;;;11.20;85.40;;;;;;5053101;28;20029;-77
2023/10/16 00:38:12;;;;;;;1.27;0.50;;;11.40;84.70;;;;;;5044376;28;20025;-77
2023/10/16 00:40:40;;;;;;;0.68;0.38;;;11.10;85.90;;;;;;5041709;28;20380;-77
2023/10/16 00:43:12;;;;;;;2.38;0.45;;;11.30;85.10;;;;;;5055394;28;20085;-77
2023/10/16 00:46:05;;;;;;;2.72;0.50;;;11.20;86.30;;;;;;5051286;28;20039;-77
2023/10/16 00:48:33;;;;;;;1.67;0.47;;;11.30;85.70;;;;;;5056834;28;20028;-77
2023/10/16 00:51:09;;;;;;;1.83;0.63;;;11.20;85.20;;;;;;5047983;28;20036;-77
2023/10/16 00:53:36;;;;;;;1.25;0.40;;;11.10;85.80;;;;;;5043727;28;20029;-77
2023/10/16 00:56:18;;;;;;;1.48;0.52;;;11.10;86.00;;;;;;5045285;28;20520;-77
2023/10/16 00:58:47;;;;;;;1.05;0.47;;;11.10;86.10;;;;;;5046801;28;20105;-77
2023/10/16 01:01:13;;;;;;;0.32;0.17;;;11.00;87.10;;;;;;5048740;28;20028;-77
2023/10/16 01:03:41;;;;;;;2.50;0.50;;;10.80;87.10;;;;;;5043762;28;20032;-77
2023/10/16 01:06:17;;;;;;;3.08;0.60;;;10.80;87.20;;;;;;5041311;28;21023;-77
2023/10/16 01:08:49;;;;;;;0.80;0.25;;;10.80;87.50;;;;;;5051560;28;20102;-77
2023/10/16 01:11:18;;;;;;;2.25;0.35;;;10.80;86.90;;;;;;5058074;28;20024;-77
2023/10/16 01:13:47;;;;;;;1.35;0.40;;;11.00;86.10;;;;;;5052095;28;20054;-77
2023/10/16 01:16:16;;;;;;;1.75;0.40;;;11.10;86.10;;;;;;5050401;28;20037;-77
2023/10/16 01:18:42;;;;;;;1.25;0.20;;;10.80;87.40;;;;;;5051798;28;20029;-77
2023/10/16 01:21:08;;;;;;;1.65;0.32;;;10.80;87.10;;;;;;5055066;28;20531;-77
2023/10/16 01:23:34;;;;;;;0.40;0.13;;;11.00;86.60;;;;;;5050728;28;20508;-77
2023/10/16 01:26:01;;;;;;;0.63;0.40;;;10.80;86.70;;;;;;5049228;28;20040;-78
2023/10/16 01:28:27;;;;;;;1.08;0.40;;;10.90;86.60;;;;;;5046319;28;20032;-77
2023/10/16 01:30:53;;;;;;;1.13;0.47;;;11.00;86.50;;;;;;5043842;28;20525;-76
2023/10/16 01:33:19;;;;;;;0.77;0.30;;;11.00;86.00;;;;;;5047660;28;20036;-75
2023/10/16 01:35:52;;;;;;;0.55;0.25;;;11.00;86.00;;;;;;5049506;28;20044;-76
2023/10/16 01:38:18;;;;;;;1.40;0.40;;;11.00;86.10;;;;;;5045840;28;20076;-76
2023/10/16 01:40:47;;;;;;;0.88;0.20;;;10.90;86.70;;;;;;5054455;28;20032;-76
2023/10/16 01:43:14;;;;;;;0.73;0.15;;;10.90;86.60;;;;;;5046295;28;20043;-76
2023/10/16 01:45:49;;;;;;;0.88;0.55;;;10.90;86.70;;;;;;5054833;28;20503;-76
2023/10/16 01:48:19;;;;;;;1.35;0.68;;;10.90;87.40;;;;;;5044843;28;22404;-76
2023/10/16 01:50:48;;;;;;;0.88;0.40;;;10.90;87.90;;;;;;5053134;28;20044;-76
2023/10/16 01:53:15;;;;;;;1.10;0.30;;;11.10;85.80;;;;;;5045857;28;20116;-76
2023/10/16 01:55:51;;;;;;;0.80;0.30;;;11.10;86.60;;;;;;5048718;28;20041;-78
2023/10/16 01:58:23;;;;;;;2.47;0.52;;;10.70;87.70;;;;;;5045927;28;20033;-76
2023/10/16 02:00:51;;;;;;;1.40;0.50;;;10.60;88.20;;;;;;5049387;28;20663;-75
2023/10/16 02:03:17;;;;;;;1.70;0.40;;;10.70;87.30;;;;;;5048397;28;22197;-76
2023/10/16 02:05:45;;;;;;;1.60;0.65;;;10.70;87.50;;;;;;5046638;28;20083;-76
2023/10/16 02:08:15;;;;;;;1.60;0.60;;;10.70;88.80;;;;;;5047465;28;20060;-76
2023/10/16 02:10:42;;;;;;;0.80;0.50;;;10.70;89.00;;;;;;5049302;28;20558;-76
2023/10/16 02:13:12;;;;;;;2.65;0.30;;;10.80;88.20;;;;;;5046917;28;20116;-76
2023/10/16 02:15:38;;;;;;;1.65;0.63;;;10.80;87.50;;;;;;5045209;28;20103;-75
2023/10/16 02:18:06;;;;;;;1.65;0.40;;;10.80;89.20;;;;;;5048952;28;20063;-76
2023/10/16 02:20:36;;;;;;;1.50;0.30;;;10.60;88.60;;;;;;5052574;28;20029;-76
2023/10/16 02:23:03;;;;;;;1.95;0.65;;;10.50;88.30;;;;;;5051859;28;20792;-77
2023/10/16 02:25:29;;;;;;;1.73;0.43;;;10.40;89.20;;;;;;5054346;28;20071;-76
2023/10/16 02:27:54;;;;;;;0.95;0.47;;;10.30;89.10;;;;;;5048205;28;20447;-76
2023/10/16 02:32:53;;;;;;;0.60;0.25;;;10.30;89.10;;;;;;5056969;28;20032;-76
2023/10/16 02:35:22;;;;;;;1.35;0.47;;;10.40;88.10;;;;;;5048641;28;20032;-76
2023/10/16 02:37:53;;;;;;;1.83;0.50;;;10.60;87.90;;;;;;5056346;28;20090;-76
2023/10/16 02:40:25;;;;;;;1.10;0.30;;;10.40;88.60;;;;;;5050857;28;20031;-77
2023/10/16 02:43:01;;;;;;;1.02;0.43;;;10.40;88.30;;;;;;5048053;28;20447;-77
2023/10/16 02:45:29;;;;;;;1.15;0.30;;;10.40;88.40;;;;;;5050995;28;20033;-77
2023/10/16 02:47:55;;;;;;;1.80;0.45;;;10.20;89.10;;;;;;5049997;28;20033;-77
2023/10/16 02:50:20;;;;;;;1.67;0.70;;;10.30;89.40;;;;;;5053769;28;20375;-77
2023/10/16 02:52:49;;;;;;;1.00;0.35;;;10.30;89.80;;;;;;5044819;28;20817;-77
2023/10/16 02:55:15;;;;;;;1.83;0.65;;;10.30;90.00;;;;;;5058939;28;20035;-77
2023/10/16 02:57:41;;;;;;;1.40;0.45;;;10.30;88.50;;;;;;5050822;28;20060;-77
2023/10/16 03:00:49;;;;;;;2.17;0.60;;;10.30;88.70;;;;;;5052633;28;20025;-75
2023/10/16 03:03:05;;;;;;;1.90;0.40;;;10.40;88.60;;;;;;5043425;28;20128;-77
2023/10/16 03:05:31;;;;;;;4.13;0.90;;;10.40;89.60;;;;;;5045830;28;20044;-77
2023/10/16 03:07:57;;;;;;;1.35;0.80;;;10.40;88.80;;;;;;5051515;28;20387;-77
2023/10/16 03:10:22;;;;;;;2.63;0.90;;;10.40;89.20;;;;;;5049206;28;20029;-77
2023/10/16 03:12:52;;;;;;;1.50;0.55;;;10.50;89.90;;;;;;5045923;28;20094;-75
2023/10/16 03:15:26;;;;;;;1.63;0.43;;;10.40;89.00;;;;;;5050031;28;20119;-76
2023/10/16 03:17:54;;;;;;;;;;;10.40;89.10;;;;;;5047730;28;20442;-76
2023/10/16 03:20:22;;;;;;;1.70;0.57;;;10.50;89.30;;;;;;5048893;28;19970;-75
2023/10/16 03:22:51;;;;;;;1.58;0.52;;;10.40;88.70;;;;;;5044606;28;20033;-76
2023/10/16 03:28:05;;;;;;;1.38;0.63;;;10.50;89.30;;;;;;5050088;28;20075;-76
2023/10/16 03:30:31;;;;;;;3.17;0.57;;;10.50;89.30;;;;;;5046320;28;20049;-76
2023/10/16 03:32:58;;;;;;;3.05;0.65;;;10.50;89.10;;;;;;5040050;28;20027;-76
2023/10/16 03:35:29;;;;;;;2.63;0.65;;;10.50;89.20;;;;;;5041335;28;20025;-76
2023/10/16 03:37:56;;;;;;;0.57;0.30;;;10.40;89.00;;;;;;5049681;28;20033;-77
2023/10/16 03:40:24;;;;;;;1.25;0.52;;;10.50;89.10;;;;;;5045354;28;20037;-76
2023/10/16 03:42:54;;;;;;;3.58;1.05;;;10.50;89.40;;;;;;5041502;28;20032;-77
2023/10/16 03:45:21;;;;;;;4.28;1.00;;;10.60;89.40;;;;;;5040516;28;20134;-76
2023/10/16 03:48:00;;;;;;;1.98;0.68;;;10.70;88.80;;;;;;5044399;28;20509;-77
2023/10/16 03:50:28;;;;;;;2.58;0.60;;;10.80;87.60;;;;;;5054560;28;20514;-77
2023/10/16 03:52:54;;;;;;;0.65;0.30;;;11.10;86.20;;;;;;5041392;28;20029;-77
2023/10/16 03:55:32;;;;;;;0.88;0.40;;;11.00;86.70;;;;;;5046361;28;20039;-77
2023/10/16 03:57:57;;;;;;;2.30;0.85;;;11.00;86.10;;;;;;5045796;28;20033;-77
2023/10/16 04:00:27;;;;;;;1.45;0.60;;;11.10;86.70;;;;;;5047735;28;20387;-76
2023/10/16 04:02:59;;;;;;;1.90;0.63;;;11.10;86.60;;;;;;5044570;28;20410;-77
2023/10/16 04:05:30;;;;;;;2.22;0.57;;;11.10;88.30;;;;;;5044909;28;20047;-76
2023/10/16 04:07:56;;;;;;;2.80;0.88;;;11.10;87.50;;;;;;5044495;28;20962;-77
2023/10/16 04:10:27;;;;;;;2.40;0.98;;;11.00;87.90;;;;;;5041804;28;20021;-77
2023/10/16 04:12:54;;;;;;;1.85;0.70;;;10.80;89.30;;;;;;5039860;28;20041;-77
2023/10/16 04:18:17;;;;;;;3.17;0.47;;;10.80;88.80;;;;;;5047070;28;20048;-77
2023/10/16 04:20:43;;;;;;;2.58;0.70;;;11.00;89.20;;;;;;5051049;28;20037;-77
2023/10/16 04:23:29;;;;;;;2.10;0.65;;;10.90;88.80;;;;;;5046407;28;20028;-76
2023/10/16 04:29:22;;;;;;;2.70;0.90;;;10.80;90.10;;;;;;5051522;28;20040;-77
2023/10/16 04:31:44;;;;;;;2.33;0.93;;;10.90;90.70;;;;;;5045514;28;20606;-77
2023/10/16 04:50:30;;;;;;;1.42;0.52;;;10.30;91.00;;;;;;5054949;28;20097;-77
2023/10/16 05:08:38;;;;;;;1.27;0.50;;;10.40;91.30;;;;;;5055114;28;20037;-77
2023/10/16 05:16:36;;;;;;;2.17;0.40;;;10.30;91.80;;;;;;5049338;28;20067;-77
2023/10/16 06:14:14;;;;;;;2.80;0.70;;;10.50;94.60;;;;;;5050188;28;20059;-77
2023/10/16 06:16:47;;;;;;;1.10;0.40;;;10.60;94.30;;;;;;5051459;28;20115;-79
2023/10/16 06:19:21;;;;;;;1.48;0.52;;;10.60;93.90;;;;;;5053006;28;20032;-76
2023/10/16 06:21:57;;;;;;;2.60;0.80;;;10.50;94.10;;;;;;5050671;28;20025;-76
2023/10/16 06:24:38;;;;;;;1.77;0.47;;;10.70;93.40;;;;;;5046515;28;20684;-78
2023/10/16 06:27:08;;;;;;;2.13;0.88;;;10.80;93.30;;;;;;5046090;28;20057;-79
2023/10/16 06:29:35;;;;;;;1.77;0.63;;;10.90;93.40;;;;;;5051124;28;20087;-79
2023/10/16 06:32:15;;;;;;;4.05;1.00;;;11.00;93.10;;;;;;5054458;28;20036;-78
2023/10/16 06:34:42;;;;;;;4.20;0.80;;;11.10;93.80;;;;;;5050218;28;20041;-77
2023/10/16 06:37:09;;;;;;;3.33;0.75;;;11.20;93.50;;;;;;5049522;28;20029;-77
2023/10/16 06:39:35;;;;;;;1.48;0.63;;;11.20;93.60;;;;;;5045449;28;20641;-80
2023/10/16 06:42:04;;;;;;;2.78;0.90;;;11.30;94.60;;;;;;5052954;28;20035;-78
2023/10/16 06:44:33;;;;;;;2.88;0.70;;;11.30;93.70;;;;;;5052604;28;20033;-78
2023/10/16 06:47:00;;;;;;;1.17;0.40;;;11.40;94.10;;;;;;5051472;28;20029;-77
2023/10/16 06:49:36;;;;;;;4.07;0.73;;;11.40;94.30;;;;;;5050487;28;20074;-77
2023/10/16 06:52:06;;;;;;;2.80;0.50;;;11.40;94.00;;;;;;5046128;28;20036;-77
2023/10/16 06:54:37;;;;;;;5.97;1.40;;;11.50;93.90;;;;;;5051358;28;20656;-77
2023/10/16 06:57:19;;;;;;;5.70;0.85;;;11.40;94.10;;;;;;5046930;28;20036;-77
2023/10/16 06:59:45;;;;;;;2.55;0.55;;;11.40;92.90;;;;;;5053368;28;20036;-79
2023/10/16 07:02:15;;;;;;;3.78;0.65;;;11.40;93.30;;;;;;5052362;28;20029;-78
2023/10/16 07:04:47;;;;;;;1.15;0.55;;;11.30;91.00;;;;;;5045987;28;20506;-79
2023/10/16 07:07:16;;;;;;;13.05;1.27;;;11.40;91.20;;;;;;5052375;28;20032;-78
2023/10/16 07:09:47;;;;;;;4.93;0.95;;;11.50;90.90;;;;;;5050660;28;20086;-78
2023/10/16 07:12:17;;;;;;;4.15;0.52;;;11.40;90.50;;;;;;5045401;28;20080;-79
2023/10/16 07:14:55;;;;;;;1.67;0.95;;;11.50;90.30;;;;;;5050168;28;20853;-79
2023/10/16 07:17:24;;;;;;;3.88;0.90;;;11.50;90.90;;;;;;5046188;28;20094;-78
2023/10/16 07:20:00;;;;;;;5.32;0.88;;;11.50;91.10;;;;;;5047782;28;20040;-79
2023/10/16 07:22:32;;;;;;;4.95;1.02;;;11.40;91.10;;;;;;5047137;28;20112;-78
2023/10/16 07:25:22;;;;;;;3.75;0.50;;;11.50;91.40;;;;;;5050318;28;20032;-79
2023/10/16 07:27:48;;;;;;;3.75;1.13;;;11.60;91.20;;;;;;5044504;28;20596;-78
2023/10/16 07:30:23;;;;;;;6.20;1.30;;;11.60;91.10;;;;;;5053106;28;20033;-79
2023/10/16 07:32:49;;;;;;;17.73;2.13;;;11.60;91.30;;;;;;5050336;28;20036;-79
2023/10/16 07:35:18;;;;;;;1.92;0.63;;;11.70;91.90;;;;;;5045091;28;20971;-79
2023/10/16 07:37:58;;;;;;;6.43;1.35;;;11.70;91.50;;;;;;5051757;28;20475;-79
2023/10/16 07:40:25;;;;;;;6.65;1.15;;;11.70;91.40;;;;;;5050089;28;20031;-79
2023/10/16 07:42:52;;;;;;;2.33;0.80;;;11.80;91.40;;;;;;5053228;28;20025;-79
2023/10/16 07:45:19;;;;;;;5.70;1.48;;;11.80;91.40;;;;;;5055775;28;20063;-79
2023/10/16 07:47:48;;;;;;;3.15;0.80;;;11.70;91.20;;;;;;5038803;28;20036;-81
2023/10/16 07:50:15;;;;;;;11.95;1.10;;;11.80;90.70;;;;;;5049683;28;20052;-80
2023/10/16 07:52:42;;;;;;;6.13;1.17;;;11.80;90.50;;;;;;5049758;28;20037;-80
2023/10/16 07:55:18;;;;;;;4.03;1.05;;;11.80;90.60;;;;;;5059575;28;20115;-79
2023/10/16 07:57:44;;;;;;;3.85;0.77;;;11.80;90.50;;;;;;5046752;28;24868;-79
2023/10/16 08:00:14;;;;;;;1.83;0.77;;;11.90;90.70;;;;;;5042177;28;20823;-79
2023/10/16 08:02:44;;;;;;;2.40;0.80;;;11.90;90.90;;;;;;5046303;28;20591;-79
2023/10/16 08:05:15;;;;;;;1.65;0.50;;;12.00;90.90;;;;;;5050517;28;20092;-80
2023/10/16 08:07:47;;;;;;;2.72;0.50;;;12.10;91.00;;;;;;5052978;28;20068;-79
2023/10/16 08:13:11;;;;;;;3.13;0.82;;;12.00;90.90;;;;;;5051990;28;20163;-79
2023/10/16 08:15:49;;;;;;;2.05;0.80;;;12.10;90.80;;;;;;5044642;28;20032;-80
2023/10/16 08:18:25;;;;;;;1.73;0.60;;;12.00;90.20;;;;;;5056582;28;20124;-80
2023/10/16 08:21:00;;;;;;;2.03;0.90;;;12.10;90.20;;;;;;5049750;28;20033;-80
2023/10/16 08:23:35;;;;;;;2.20;0.63;;;12.20;90.50;;;;;;5052156;28;20028;-80
2023/10/16 08:26:28;;;;;;;3.00;0.70;;;12.30;90.00;;;;;;5063052;28;20920;-78
2023/10/16 08:29:11;;;;;;;2.22;0.80;;;12.30;90.10;;;;;;5047679;28;20037;-80
2023/10/16 08:31:44;;;;;;;2.63;0.70;;;12.40;90.40;;;;;;5045700;28;20040;-80
2023/10/16 08:34:13;;;;;;;2.08;0.80;;;12.30;90.00;;;;;;5044266;28;20029;-80
2023/10/16 08:36:38;;;;;;;2.38;1.20;;;12.30;90.90;;;;;;5051848;28;20090;-80
2023/10/16 08:39:08;;;;;;;7.80;0.88;;;12.30;89.80;;;;;;5047126;28;20033;-80
2023/10/16 08:42:01;;;;;;;2.13;0.75;;;12.30;89.60;;;;;;5050749;28;20021;-80
2023/10/16 08:44:31;;;;;;;2.65;1.05;;;12.30;90.10;;;;;;5043602;28;20036;-80
2023/10/16 08:49:23;;;;;;;3.20;0.95;;;12.40;90.20;;;;;;5045301;28;20044;-80
2023/10/16 08:52:04;;;;;;;1.02;0.52;;;12.40;90.70;;;;;;5050049;28;20021;-81
2023/10/16 08:54:58;;;;;;;2.35;0.70;;;12.40;90.00;;;;;;5051549;28;20546;-81
2023/10/16 08:57:25;;;;;;;5.80;0.90;;;12.40;89.70;;;;;;5047282;28;20041;-81
2023/10/16 08:59:51;;;;;;;7.70;1.58;;;12.30;89.90;;;;;;5048675;28;20052;-79
2023/10/16 09:02:21;;;;;;;1.92;0.65;;;12.40;88.90;;;;;;5051062;28;20029;-78
2023/10/16 09:04:52;;;;;;;4.95;0.75;;;12.50;89.60;;;;;;5051031;28;20728;-79
2023/10/16 09:07:19;;;;;;;3.20;0.70;;;12.80;89.60;;;;;;5045381;28;20024;-79
2023/10/16 09:09:53;;;;;;;13.57;1.38;;;12.60;89.70;;;;;;5053524;28;20123;-79
2023/10/16 09:12:37;;;;;;;3.78;1.05;;;12.70;90.90;;;;;;5045593;28;20021;-79
2023/10/16 09:15:05;;;;;;;4.18;1.10;;;12.50;90.50;;;;;;5044856;28;20036;-79
2023/10/16 09:17:33;;;;;;;2.92;1.17;;;12.40;90.10;;;;;;5044408;28;20897;-79
2023/10/16 09:20:02;;;;;;;4.32;1.45;;;12.50;90.20;;;;;;5042303;28;20032;-79
2023/10/16 09:22:29;;;;;;;8.27;1.13;;;12.60;90.20;;;;;;5049659;28;20060;-79
2023/10/16 09:24:58;;;;;;;3.78;0.77;;;12.70;90.70;;;;;;5062540;28;20024;-78
2023/10/16 09:27:30;;;;;;;3.30;1.00;;;12.90;90.40;;;;;;5047023;28;20371;-79
2023/10/16 09:30:00;;;;;;;3.75;0.73;;;12.80;89.60;;;;;;5056649;28;20566;-78
2023/10/16 09:32:36;;;;;;;1.70;0.73;;;12.90;90.10;;;;;;5054476;28;20032;-79
2023/10/16 09:35:06;;;;;;;2.38;1.00;;;12.70;90.30;;;;;;5046361;28;20167;-79
2023/10/16 09:37:36;;;;;;;4.85;1.15;;;13.00;90.70;;;;;;5045949;28;20035;-79
2023/10/16 09:40:08;;;;;;;6.00;1.67;;;13.20;90.20;;;;;;5048613;28;20615;-79
2023/10/16 09:42:37;;;;;;;3.22;1.27;;;13.00;90.10;;;;;;5047737;28;20147;-78
2023/10/16 09:45:09;;;;;;;4.65;1.13;;;13.10;90.70;;;;;;5049750;28;20052;-79
2023/10/16 09:47:48;;;;;;;3.22;0.85;;;13.10;90.40;;;;;;5055414;28;20391;-79
2023/10/16 09:50:16;;;;;;;3.25;0.70;;;13.10;90.40;;;;;;5046160;28;20478;-80
2023/10/16 09:52:46;;;;;;;5.50;0.82;;;13.20;90.40;;;;;;5049456;28;20419;-79
2023/10/16 09:55:12;;;;;;;6.20;1.20;;;13.20;90.40;;;;;;5053446;28;20122;-80
2023/10/16 09:57:53;;;;;;;4.22;1.25;;;13.30;90.10;;;;;;5050088;28;20130;-80
2023/10/16 10:03:05;;;;;;;2.38;0.80;;;13.40;90.50;;;;;;5053217;28;20037;-77
2023/10/16 10:05:41;;;;;;;9.07;1.75;;;13.40;90.00;;;;;;5054145;28;20036;-78
2023/10/16 10:08:20;;;;;;;5.38;1.20;;;13.40;90.20;;;;;;5047214;28;20029;-77
2023/10/16 10:11:16;;;;;;;2.65;0.85;;;13.40;90.30;;;;;;5056018;28;20082;-77
2023/10/16 10:14:08;;;;;;;5.75;0.95;;;13.40;90.10;;;;;;5044713;28;20029;-78
2023/10/16 10:16:35;;;;;;;2.10;1.00;;;13.40;89.50;;;;;;5049002;28;22698;-79
2023/10/16 10:19:04;;;;;;;4.80;1.15;;;13.30;90.10;;;;;;5054158;28;20040;-78
2023/10/16 10:21:44;;;;;;;6.75;0.90;;;13.30;90.70;;;;;;5045112;28;20032;-79
2023/10/16 10:24:15;;;;;;;16.58;1.38;;;13.50;90.00;;;;;;5046091;28;20041;-79
2023/10/16 10:26:50;;;;;;;2.05;0.80;;;13.50;90.40;;;;;;5044065;28;20044;-79
2023/10/16 10:29:20;;;;;;;4.05;1.20;;;13.50;90.10;;;;;;5047833;28;20029;-79
2023/10/16 10:31:47;;;;;;;4.70;1.30;;;13.60;89.70;;;;;;5053027;28;20379;-79
2023/10/16 10:34:27;;;;;;;2.72;0.80;;;13.70;90.10;;;;;;5047340;28;20041;-79
2023/10/16 10:36:54;;;;;;;2.75;0.63;;;13.60;90.00;;;;;;5051712;28;20047;-78
2023/10/16 10:39:25;;;;;;;4.63;1.00;;;13.70;89.20;;;;;;5048764;28;20025;-80
2023/10/16 10:41:54;;;;;;;2.33;0.70;;;13.60;89.00;;;;;;5047646;28;27154;-79
2023/10/16 10:44:29;;;;;;;9.75;1.80;;;13.80;90.40;;;;;;5043762;28;20059;-79
2023/10/16 10:46:55;;;;;;;3.33;1.00;;;14.00;90.20;;;;;;5047325;28;20468;-78
2023/10/16 10:49:34;;;;;;;3.97;1.05;;;14.10;90.10;;;;;;5053116;28;20036;-79
2023/10/16 10:52:07;;;;;;;3.70;0.80;;;13.90;89.30;;;;;;5047585;28;20032;-77
2023/10/16 10:54:42;;;;;;;4.60;0.88;;;13.90;90.20;;;;;;5055924;28;20418;-76
2023/10/16 10:57:18;;;;;;;9.80;1.30;;;14.00;88.70;;;;;;5059899;28;20036;-78
2023/10/16 10:59:47;;;;;;;2.47;0.85;;;13.90;88.70;;;;;;5051264;28;20071;-78
2023/10/16 11:04:44;;;;;;;2.83;1.27;;;13.90;89.70;;;;;;5049422;28;20044;-78
2023/10/16 11:07:26;;;;;;;2.83;0.90;;;13.90;89.50;;;;;;5050897;28;20075;-78
2023/10/16 11:09:53;;;;;;;5.85;1.85;;;14.00;89.00;;;;;;5042811;28;20608;-78
2023/10/16 11:12:24;;;;;;;2.25;0.75;;;13.90;90.40;;;;;;5047794;28;20027;-78
2023/10/16 11:14:51;;;;;;;4.43;1.35;;;13.70;89.10;;;;;;5044763;28;20032;-78
2023/10/16 11:17:33;;;;;;;6.30;1.40;;;13.70;89.30;;;;;;5045362;28;20086;-78
2023/10/16 11:20:16;;;;;;;4.00;0.98;;;13.80;88.70;;;;;;5045389;28;20447;-78
2023/10/16 11:22:45;;;;;;;5.78;0.85;;;14.10;89.60;;;;;;5050169;28;20036;-78
2023/10/16 11:25:13;;;;;;;5.53;1.35;;;14.20;88.90;;;;;;5051602;28;20025;-78
2023/10/16 11:27:43;;;;;;;7.75;1.52;;;14.10;89.30;;;;;;5047895;28;20044;-78
2023/10/16 11:30:18;;;;;;;2.45;0.90;;;14.30;89.90;;;;;;5046531;28;20499;-79
2023/10/16 11:32:46;;;;;;;4.20;1.10;;;14.30;89.00;;;;;;5047200;28;20436;-80
2023/10/16 11:35:16;;;;;;;2.83;0.80;;;14.30;89.90;;;;;;5053552;28;20025;-78
2023/10/16 11:37:50;;;;;;;8.50;1.10;;;14.50;89.20;;;;;;5051709;28;20036;-78
2023/10/16 11:40:19;;;;;;;3.47;1.20;;;14.60;89.20;;;;;;5050114;28;20023;-78
2023/10/16 11:42:48;;;;;;;6.40;2.88;;;14.50;88.70;;;;;;5050340;28;20102;-78
2023/10/16 11:45:23;;;;;;;5.13;1.20;;;14.70;88.80;;;;;;5049669;28;20020;-78
2023/10/16 11:50:39;;;;;;;6.68;1.13;;;14.40;88.60;;;;;;5044487;28;20151;-78
2023/10/16 11:53:08;;;;;;;6.50;1.00;;;14.40;89.30;;;;;;5056056;28;20482;-77
2023/10/16 11:55:37;;;;;;;3.70;0.90;;;14.50;89.50;;;;;;5046112;28;20037;-77
2023/10/16 11:58:06;;;;;;;4.88;1.15;;;14.40;89.60;;;;;;5042138;28;20597;-79
2023/10/16 12:00:35;;;;;;;2.70;0.95;;;14.30;88.30;;;;;;5042251;28;20111;-78
2023/10/16 12:03:07;;;;;;;3.85;1.23;;;14.30;88.40;;;;;;5047152;28;20529;-78
2023/10/16 12:05:36;;;;;;;4.18;0.80;;;14.30;88.30;;;;;;5044200;28;20524;-77
2023/10/16 12:08:02;;;;;;;4.00;0.77;;;14.50;89.40;;;;;;5053068;28;20988;-77
2023/10/16 12:10:29;;;;;;;1.67;0.82;;;14.50;88.90;;;;;;5046425;28;21285;-78
2023/10/16 12:12:55;;;;;;;4.97;1.08;;;14.60;89.40;;;;;;5043061;28;20115;-78
2023/10/16 12:15:24;;;;;;;5.25;1.17;;;14.70;90.00;;;;;;5048663;28;20619;-77
2023/10/16 12:17:53;;;;;;;4.38;1.00;;;14.70;89.40;;;;;;5052550;28;20029;-77
2023/10/16 12:20:21;;;;;;;2.35;0.77;;;14.80;89.40;;;;;;5045705;28;20139;-78
2023/10/16 12:22:49;;;;;;;2.97;1.13;;;14.80;89.30;;;;;;5042107;28;20032;-78
2023/10/16 12:25:15;;;;;;;2.45;0.70;;;14.90;89.30;;;;;;5044374;28;20171;-77
2023/10/16 12:27:41;;;;;;;1.38;0.68;;;14.70;90.10;;;;;;5046671;28;20040;-78
2023/10/16 12:30:13;;;;;;;5.03;1.00;;;14.70;90.60;;;;;;5043239;28;20040;-77
2023/10/16 12:32:38;;;;;;;3.17;0.70;;;14.70;91.20;;;;;;5047438;28;20037;-77
2023/10/16 12:35:08;;;;;;;5.72;1.50;;;14.80;89.90;;;;;;5064784;28;20439;-78
2023/10/16 12:37:35;;;;;;;2.88;1.05;;;14.90;90.20;;;;;;5063797;28;20473;-78
2023/10/16 12:40:24;;;;;;;3.17;1.27;;;14.80;90.60;;;;;;5065696;28;20378;-78
2023/10/16 12:42:46;;;;;;;4.15;1.00;;;14.80;90.40;;;;;;5065118;28;20480;-78
2023/10/16 12:45:12;;;;;;;2.92;1.23;;;14.80;90.00;;;;;;5065307;28;20099;-78
2023/10/16 12:47:38;;;;;;;9.05;1.15;;;14.80;90.10;;;;;;5065416;28;20102;-78
2023/10/16 12:50:05;;;;;;;3.95;1.25;;;14.80;90.50;;;;;;5050851;28;20865;-78
2023/10/16 12:52:31;;;;;;;3.22;1.23;;;14.80;89.60;;;;;;5045394;28;20032;-78
2023/10/16 12:55:00;;;;;;;3.55;0.73;;;14.70;90.10;;;;;;5045072;28;20128;-78
2023/10/16 12:57:27;;;;;;;2.42;0.93;;;14.80;89.70;;;;;;5044980;28;20479;-78
2023/10/16 12:59:56;;;;;;;4.38;1.20;;;14.90;90.30;;;;;;5045099;28;20040;-78
2023/10/16 13:02:25;;;;;;;1.92;1.00;;;15.00;90.00;;;;;;5044637;28;20056;-78
2023/10/16 13:04:52;;;;;;;2.60;1.20;;;15.10;89.80;;;;;;5045132;28;20102;-78
2023/10/16 13:07:20;;;;;;;17.38;1.20;;;15.00;89.80;;;;;;5045180;28;20032;-78
2023/10/16 13:09:47;;;;;;;3.42;1.10;;;14.90;89.60;;;;;;5045355;28;20594;-78
2023/10/16 13:12:13;;;;;;;6.28;1.33;;;15.00;90.30;;;;;;5045334;28;20017;-78
2023/10/16 13:14:39;;;;;;;4.18;1.13;;;15.00;90.30;;;;;;5045385;28;20029;-77
2023/10/16 13:17:08;;;;;;;4.85;1.10;;;15.00;90.40;;;;;;5044786;28;20033;-78
2023/10/16 13:19:34;;;;;;;6.07;1.13;;;15.00;90.20;;;;;;5045522;28;20111;-78
2023/10/16 13:22:07;;;;;;;2.35;0.90;;;15.10;90.30;;;;;;5051440;28;20032;-77
2023/10/16 13:24:35;;;;;;;7.27;1.47;;;15.20;90.30;;;;;;5066759;28;20035;-78
2023/10/16 13:27:00;;;;;;;4.88;1.33;;;15.10;90.30;;;;;;5046427;28;20195;-78
2023/10/16 13:29:26;;;;;;;4.28;0.80;;;15.20;90.70;;;;;;5044880;28;20104;-80
2023/10/16 13:31:56;;;;;;;2.92;0.98;;;15.20;90.20;;;;;;5040614;28;20025;-78
2023/10/16 13:34:21;;;;;;;4.43;1.13;;;15.20;90.90;;;;;;5042484;28;20080;-79
2023/10/16 13:37:00;;;;;;;4.32;1.00;;;15.30;90.80;;;;;;5042924;28;20048;-77
2023/10/16 13:39:31;;;;;;;4.05;1.20;;;15.40;91.10;;;;;;5048250;28;20032;-77
2023/10/16 13:41:59;;;;;;;3.70;1.08;;;15.50;91.50;;;;;;5049622;28;20032;-78
2023/10/16 13:44:25;;;;;;;2.42;0.88;;;15.60;91.10;;;;;;5047517;28;20056;-78
2023/10/16 13:46:54;;;;;;;5.03;0.70;;;15.40;90.50;;;;;;5041365;28;20033;-78
2023/10/16 13:49:23;;;;;;;4.05;1.75;;;15.30;90.50;;;;;;5043950;28;20040;-78
2023/10/16 13:51:52;;;;;;;23.42;13.10;;;15.30;88.40;;;;;;5046943;28;20052;-78
2023/10/16 13:54:18;;;;;;;3.97;1.60;;;15.40;89.40;;;;;;5047119;28;20099;-78
2023/10/16 13:56:48;;;;;;;7.15;2.25;;;15.50;87.90;;;;;;5050235;28;20151;-78
2023/10/16 13:59:15;;;;;;;3.15;0.93;;;15.40;89.50;;;;;;5043850;28;20898;-78
2023/10/16 14:01:44;;;;;;;4.93;1.88;;;15.50;90.30;;;;;;5045821;28;20479;-79
2023/10/16 14:04:14;;;;;;;4.28;2.17;;;15.50;89.70;;;;;;5045090;28;20388;-78
2023/10/16 14:06:44;;;;;;;2.05;0.82;;;15.40;89.20;;;;;;5044941;28;20040;-78
2023/10/16 14:09:19;;;;;;;1.90;0.68;;;15.40;89.80;;;;;;5049859;28;20520;-78
2023/10/16 14:11:48;;;;;;;3.42;1.10;;;15.50;90.00;;;;;;5056598;28;20063;-78
2023/10/16 14:14:19;;;;;;;4.90;0.88;;;15.50;90.30;;;;;;5045411;28;20060;-79
2023/10/16 14:17:03;;;;;;;3.17;1.17;;;15.40;90.00;;;;;;5049251;28;20118;-78
2023/10/16 14:19:29;;;;;;;;;;;15.40;90.10;;;;;;5045316;28;20667;-78
2023/10/16 14:21:57;;;;;;;10.43;2.95;;;15.40;90.00;;;;;;5052433;28;19911;-79
2023/10/16 14:24:24;;;;;;;4.97;1.10;;;15.30;90.00;;;;;;5050464;28;20029;-79
2023/10/16 14:26:55;;;;;;;26.98;2.38;;;15.20;91.30;;;;;;5051525;28;20035;-78
2023/10/16 14:29:22;;;;;;;6.55;1.02;;;15.10;91.00;;;;;;5050852;28;20025;-78
2023/10/16 14:31:52;;;;;;;11.20;2.03;;;15.00;91.10;;;;;;5054192;28;20044;-78
2023/10/16 14:34:24;;;;;;;6.97;1.70;;;15.20;91.10;;;;;;5049628;28;20081;-78
2023/10/16 14:36:52;;;;;;;1.88;0.63;;;15.20;90.70;;;;;;5045100;28;20040;-78
2023/10/16 14:39:19;;;;;;;2.83;0.50;;;15.20;90.60;;;;;;5047569;28;20072;-78
2023/10/16 14:41:45;;;;;;;1.23;0.47;;;15.00;89.80;;;;;;5051085;28;20040;-78
2023/10/16 14:44:12;;;;;;;1.75;0.82;;;15.00;90.00;;;;;;5048518;28;20108;-78
2023/10/16 14:46:38;;;;;;;1.90;0.82;;;15.00;90.20;;;;;;5048323;28;20029;-78
2023/10/16 14:49:13;;;;;;;3.85;0.80;;;15.10;90.50;;;;;;5055437;28;20020;-78
2023/10/16 14:51:40;;;;;;;3.65;1.00;;;15.20;90.40;;;;;;5051861;28;20426;-78
2023/10/16 14:54:13;;;;;;;1.65;0.70;;;15.20;90.20;;;;;;5053557;28;20111;-78
2023/10/16 14:56:39;;;;;;;4.60;0.70;;;15.30;90.40;;;;;;5062483;28;20046;-78
2023/10/16 14:59:09;;;;;;;2.45;0.70;;;15.10;90.30;;;;;;5050787;28;20107;-79
2023/10/16 15:01:36;;;;;;;2.47;0.70;;;15.00;91.30;;;;;;5053105;28;20119;-78